Flight Track Log - Related Links

Times and Time Zones

All times are in EDT time to prevent confusion due to time zone crossing. See the N589H flight status page for this flight to view local times or setup timezone preferences in your user account.

Time Position Orientation Groundspeed Altitude Reporting Facility
EDT Latitude Longitude Course Direction KTS MPH feet Rate Location/Type
Wed 05:11:24 AM 23.6517 -84.6667 26° Northeast 339 390 30,900  Level Miami Center
Wed 05:11:59 AM 23.7006 -84.6411 26° Northeast 340 391 30,900  Level Miami Center
Wed 05:12:59 AM 23.7864 -84.6000 24° Northeast 340 391 30,900  Level Miami Center
Wed 05:14:03 AM 23.8753 -84.5619 21° North 339 390 30,900  Level Miami Center
Wed 05:15:03 AM 23.9597 -84.5225 23° Northeast 338 389 30,900  Level Miami Center
Wed 05:16:04 AM 24.0500 -84.4847 21° North 338 389 30,900  Level Miami Center
Wed 05:17:01 AM 24.1361 -84.4458 22° Northeast 338 389 30,900  Level Miami Center
Wed 05:18:04 AM 24.2239 -84.4061 22° Northeast 338 389 30,900  Level Miami Center
Wed 05:19:03 AM 24.3103 -84.3669 22° Northeast 338 389 30,900  Level Miami Center
Wed 05:20:05 AM 24.3950 -84.3272 23° Northeast 336 387 30,900  Level Miami Center
Wed 05:21:06 AM 24.4819 -84.2872 23° Northeast 336 387 30,900  Level Miami Center
Wed 05:22:06 AM 24.5692 -84.2486 22° Northeast 336 387 30,900  Level Miami Center
Wed 05:23:04 AM 24.6733 -84.2006 23° Northeast 337 388 30,900  Level Miami Center
Wed 05:24:07 AM 24.7611 -84.1617 22° Northeast 337 388 30,900  Level Miami Center
Wed 05:25:08 AM 24.8506 -84.1211 22° Northeast 340 391 30,900  Level Miami Center
Wed 05:26:05 AM 24.9400 -84.0806 22° Northeast 342 394 30,900  Level Miami Center
Wed 05:27:06 AM 25.0267 -84.0400 23° Northeast 342 394 30,900  Level Miami Center
Wed 05:28:07 AM 25.1139 -84.0008 22° Northeast 342 394 30,900  Level Miami Center
Wed 05:29:07 AM 25.2022 -83.9600 23° Northeast 342 394 30,900  Level Miami Center
Wed 05:30:10 AM 25.2939 -83.9186 22° Northeast 345 397 30,900  Level Miami Center
Wed 05:31:11 AM 25.3808 -83.8786 23° Northeast 345 397 30,900  Level Miami Center
Wed 05:32:08 AM 25.4692 -83.8375 23° Northeast 345 397 30,900  Level Miami Center
Wed 05:33:12 AM 25.5581 -83.7972 22° Northeast 345 397 30,900  Level Miami Center
Wed 05:34:12 AM 25.6472 -83.7561 23° Northeast 345 397 30,900  Level Miami Center
Wed 05:35:09 AM 25.7369 -83.7139 23° Northeast 345 397 30,900  Level Miami Center
Wed 05:36:10 AM 25.8247 -83.6736 22° Northeast 345 397 30,900  Level Miami Center
Wed 05:37:10 AM 25.9147 -83.6322 22° Northeast 345 397 30,900  Level Miami Center
Wed 05:38:11 AM 26.0031 -83.5906 23° Northeast 345 397 30,900  Level Miami Center
Wed 05:39:11 AM 26.0917 -83.5486 23° Northeast 345 397 30,900  Level Miami Center
Wed 05:40:12 AM 26.1825 -83.5086 22° Northeast 346 398 30,900  Level Miami Center
Wed 05:41:15 AM 26.2706 -83.4661 23° Northeast 346 398 30,900  Level Miami Center
Wed 05:42:14 AM 26.3597 -83.4236 23° Northeast 346 398 30,900 -300 Level Miami Center
Wed 05:43:15 AM 26.4517 -83.3828 22° Northeast 348 400 30,300 -1,289 Descending Miami Center
Wed 05:44:15 AM 26.5472 -83.3381 23° Northeast 364 419 28,300 -1,884 Descending Miami Center
Wed 05:45:16 AM 26.6467 -83.2922 22° Northeast 380 437 26,500 -1,721 Descending Miami Center
Wed 05:46:17 AM 26.7428 -83.2456 23° Northeast 377 434 24,800 -1,714 Descending Miami Center
Wed 05:47:15 AM 26.8372 -83.1992 24° Northeast 376 433 23,100 -1,636 Descending Miami Center
Wed 05:48:18 AM 26.9292 -83.1564 23° Northeast 363 418 21,500 -1,597 Descending Miami Center
Wed 05:49:19 AM 27.0189 -83.1144 23° Northeast 354 407 19,800 -1,765 Descending Miami Center
Wed 05:50:17 AM 27.1053 -83.0747 22° Northeast 342 394 18,000 -1,780 Descending Miami Center
Wed 05:51:17 AM 27.1881 -83.0333 24° Northeast 331 381 16,300 -1,707 Descending Miami Center
Wed 05:52:20 AM 27.2686 -82.9939 24° Northeast 322 371 14,500 -1,659 Descending Miami Center
Wed 05:53:20 AM 27.3542 -82.9539 23° Northeast 329 379 12,900 -1,678 Descending Miami Center
Wed 05:54:18 AM 27.4356 -82.9147 23° Northeast 322 371 11,200 -1,934 Descending Miami Center
Wed 05:55:21 AM 27.5314 -82.8700 22° Northeast 311 358 9,000 -2,083 Descending Miami Center
Wed 05:56:19 AM 27.6081 -82.8325 23° Northeast 304 350 7,000 -1,981 Descending Miami Center
Wed 05:57:04 AM 27.6667 -82.8000 26° Northeast 294 338 5,600 -1,943 Descending Tampa TRACON
Wed 05:58:04 AM 27.7333 -82.7667 24° Northeast 272 313 3,600 -1,737 Descending Tampa TRACON
Wed 05:58:58 AM 27.7833 -82.7500 16° North 218 251 2,300 -900 Descending Tampa TRACON
Wed 06:00:04 AM 27.8333 -82.7167 31° Northeast 165 190 1,800 -619 Descending Tampa TRACON
Wed 06:01:04 AM 27.8667 -82.6833 41° Northeast 137 158 1,000 -800 Descending Tampa TRACON

Login

Don't have an account? Register now (free) for customized features, flight alerts, and more!